sensor_id;sensor_type;location;lat;lon;timestamp;P1;durP1;ratioP1;P2;durP2;ratioP2
64826;SDS011;51265;53.972;12.286;2023-06-22T00:00:49;8.43;;;7.63;;
64826;SDS011;51265;53.972;12.286;2023-06-22T00:03:19;12.77;;;7.82;;
64826;SDS011;51265;53.972;12.286;2023-06-22T00:05:47;10.25;;;6.70;;
64826;SDS011;51265;53.972;12.286;2023-06-22T00:08:14;9.07;;;6.90;;
64826;SDS011;51265;53.972;12.286;2023-06-22T00:10:40;10.27;;;7.60;;
64826;SDS011;51265;53.972;12.286;2023-06-22T00:13:21;10.25;;;8.18;;
64826;SDS011;51265;53.972;12.286;2023-06-22T00:15:47;9.82;;;7.63;;
64826;SDS011;51265;53.972;12.286;2023-06-22T00:18:13;11.45;;;7.97;;
64826;SDS011;51265;53.972;12.286;2023-06-22T00:20:41;13.23;;;7.53;;
64826;SDS011;51265;53.972;12.286;2023-06-22T00:23:07;11.50;;;7.97;;
64826;SDS011;51265;53.972;12.286;2023-06-22T00:25:37;11.13;;;7.65;;
64826;SDS011;51265;53.972;12.286;2023-06-22T00:28:06;12.18;;;8.88;;
64826;SDS011;51265;53.972;12.286;2023-06-22T00:30:34;9.95;;;8.05;;
64826;SDS011;51265;53.972;12.286;2023-06-22T00:33:00;8.40;;;7.15;;
64826;SDS011;51265;53.972;12.286;2023-06-22T00:35:27;11.35;;;8.50;;
64826;SDS011;51265;53.972;12.286;2023-06-22T00:37:56;13.40;;;8.85;;
64826;SDS011;51265;53.972;12.286;2023-06-22T00:40:29;12.18;;;7.80;;
64826;SDS011;51265;53.972;12.286;2023-06-22T00:42:59;12.10;;;8.70;;
64826;SDS011;51265;53.972;12.286;2023-06-22T00:45:25;8.60;;;7.70;;
64826;SDS011;51265;53.972;12.286;2023-06-22T00:47:52;9.63;;;7.85;;
64826;SDS011;51265;53.972;12.286;2023-06-22T00:50:20;10.10;;;8.27;;
64826;SDS011;51265;53.972;12.286;2023-06-22T00:52:52;12.13;;;8.90;;
64826;SDS011;51265;53.972;12.286;2023-06-22T00:55:22;11.80;;;9.43;;
64826;SDS011;51265;53.972;12.286;2023-06-22T00:57:49;14.25;;;9.65;;
64826;SDS011;51265;53.972;12.286;2023-06-22T01:00:15;14.85;;;8.88;;
64826;SDS011;51265;53.972;12.286;2023-06-22T01:02:46;12.13;;;9.27;;
64826;SDS011;51265;53.972;12.286;2023-06-22T01:05:13;13.95;;;9.18;;
64826;SDS011;51265;53.972;12.286;2023-06-22T01:07:42;13.80;;;9.73;;
64826;SDS011;51265;53.972;12.286;2023-06-22T01:10:33;11.30;;;9.15;;
64826;SDS011;51265;53.972;12.286;2023-06-22T01:16:16;13.85;;;9.18;;
64826;SDS011;51265;53.972;12.286;2023-06-22T01:18:50;12.73;;;8.98;;
64826;SDS011;51265;53.972;12.286;2023-06-22T01:21:19;10.90;;;9.30;;
64826;SDS011;51265;53.972;12.286;2023-06-22T01:26:43;12.25;;;9.35;;
64826;SDS011;51265;53.972;12.286;2023-06-22T01:29:26;12.73;;;10.32;;
64826;SDS011;51265;53.972;12.286;2023-06-22T01:31:55;13.90;;;9.20;;
64826;SDS011;51265;53.972;12.286;2023-06-22T01:34:23;12.02;;;8.32;;
64826;SDS011;51265;53.972;12.286;2023-06-22T01:36:50;13.20;;;8.80;;
64826;SDS011;51265;53.972;12.286;2023-06-22T01:39:18;10.52;;;8.20;;
64826;SDS011;51265;53.972;12.286;2023-06-22T01:41:45;9.73;;;7.70;;
64826;SDS011;51265;53.972;12.286;2023-06-22T01:44:15;10.25;;;7.57;;
64826;SDS011;51265;53.972;12.286;2023-06-22T01:46:41;10.93;;;7.00;;
64826;SDS011;51265;53.972;12.286;2023-06-22T01:49:08;12.88;;;7.53;;
64826;SDS011;51265;53.972;12.286;2023-06-22T01:51:36;10.45;;;7.28;;
64826;SDS011;51265;53.972;12.286;2023-06-22T01:54:02;11.68;;;8.38;;
64826;SDS011;51265;53.972;12.286;2023-06-22T01:56:28;10.15;;;8.00;;
64826;SDS011;51265;53.972;12.286;2023-06-22T01:59:12;13.68;;;8.88;;
64826;SDS011;51265;53.972;12.286;2023-06-22T02:01:44;13.02;;;8.82;;
64826;SDS011;51265;53.972;12.286;2023-06-22T02:04:21;15.23;;;10.90;;
64826;SDS011;51265;53.972;12.286;2023-06-22T02:06:58;16.95;;;10.75;;
64826;SDS011;51265;53.972;12.286;2023-06-22T02:09:25;17.85;;;10.93;;
64826;SDS011;51265;53.972;12.286;2023-06-22T02:11:56;17.98;;;11.88;;
64826;SDS011;51265;53.972;12.286;2023-06-22T02:14:23;16.35;;;11.85;;
64826;SDS011;51265;53.972;12.286;2023-06-22T02:16:51;21.00;;;12.80;;
64826;SDS011;51265;53.972;12.286;2023-06-22T02:19:22;19.92;;;12.32;;
64826;SDS011;51265;53.972;12.286;2023-06-22T02:22:10;16.05;;;11.20;;
64826;SDS011;51265;53.972;12.286;2023-06-22T02:24:36;19.65;;;12.10;;
64826;SDS011;51265;53.972;12.286;2023-06-22T02:27:02;17.55;;;12.15;;
64826;SDS011;51265;53.972;12.286;2023-06-22T02:29:32;16.23;;;13.25;;
64826;SDS011;51265;53.972;12.286;2023-06-22T02:31:58;16.23;;;12.05;;
64826;SDS011;51265;53.972;12.286;2023-06-22T02:34:24;15.18;;;10.23;;
64826;SDS011;51265;53.972;12.286;2023-06-22T02:36:51;16.17;;;9.90;;
64826;SDS011;51265;53.972;12.286;2023-06-22T02:39:18;12.98;;;10.30;;
64826;SDS011;51265;53.972;12.286;2023-06-22T02:41:45;11.75;;;9.73;;
64826;SDS011;51265;53.972;12.286;2023-06-22T02:44:11;14.70;;;10.75;;
64826;SDS011;51265;53.972;12.286;2023-06-22T02:46:37;13.77;;;10.50;;
64826;SDS011;51265;53.972;12.286;2023-06-22T02:49:04;13.50;;;9.93;;
64826;SDS011;51265;53.972;12.286;2023-06-22T02:54:00;16.33;;;11.88;;
64826;SDS011;51265;53.972;12.286;2023-06-22T02:56:28;15.50;;;11.45;;
64826;SDS011;51265;53.972;12.286;2023-06-22T02:58:58;18.58;;;12.52;;
64826;SDS011;51265;53.972;12.286;2023-06-22T03:01:34;21.17;;;14.73;;
64826;SDS011;51265;53.972;12.286;2023-06-22T03:04:22;19.73;;;14.00;;
64826;SDS011;51265;53.972;12.286;2023-06-22T03:06:49;17.05;;;14.05;;
64826;SDS011;51265;53.972;12.286;2023-06-22T03:09:17;17.08;;;11.00;;
64826;SDS011;51265;53.972;12.286;2023-06-22T03:11:43;17.58;;;11.88;;
64826;SDS011;51265;53.972;12.286;2023-06-22T03:14:09;14.57;;;10.35;;
64826;SDS011;51265;53.972;12.286;2023-06-22T03:16:36;12.80;;;8.73;;
64826;SDS011;51265;53.972;12.286;2023-06-22T03:19:02;13.15;;;9.60;;
64826;SDS011;51265;53.972;12.286;2023-06-22T03:21:28;13.73;;;9.82;;
64826;SDS011;51265;53.972;12.286;2023-06-22T03:23:55;10.73;;;9.10;;
64826;SDS011;51265;53.972;12.286;2023-06-22T03:26:21;11.38;;;8.95;;
64826;SDS011;51265;53.972;12.286;2023-06-22T03:28:49;11.63;;;8.60;;
64826;SDS011;51265;53.972;12.286;2023-06-22T03:31:15;10.27;;;8.38;;
64826;SDS011;51265;53.972;12.286;2023-06-22T03:33:41;11.38;;;8.95;;
64826;SDS011;51265;53.972;12.286;2023-06-22T03:36:08;13.27;;;9.88;;
64826;SDS011;51265;53.972;12.286;2023-06-22T03:38:34;12.45;;;8.50;;
64826;SDS011;51265;53.972;12.286;2023-06-22T03:41:00;12.07;;;9.32;;
64826;SDS011;51265;53.972;12.286;2023-06-22T03:43:29;11.95;;;9.13;;
64826;SDS011;51265;53.972;12.286;2023-06-22T03:45:56;11.15;;;8.52;;
64826;SDS011;51265;53.972;12.286;2023-06-22T03:48:22;10.68;;;7.82;;
64826;SDS011;51265;53.972;12.286;2023-06-22T03:50:48;9.18;;;8.15;;
64826;SDS011;51265;53.972;12.286;2023-06-22T03:53:14;10.27;;;8.82;;
64826;SDS011;51265;53.972;12.286;2023-06-22T03:55:47;10.30;;;8.15;;
64826;SDS011;51265;53.972;12.286;2023-06-22T03:58:15;10.73;;;9.20;;
64826;SDS011;51265;53.972;12.286;2023-06-22T04:00:41;11.35;;;9.25;;
64826;SDS011;51265;53.972;12.286;2023-06-22T04:03:07;12.30;;;8.68;;
64826;SDS011;51265;53.972;12.286;2023-06-22T04:05:34;10.90;;;8.25;;
64826;SDS011;51265;53.972;12.286;2023-06-22T04:08:00;9.55;;;8.25;;
64826;SDS011;51265;53.972;12.286;2023-06-22T04:10:26;11.05;;;8.18;;
64826;SDS011;51265;53.972;12.286;2023-06-22T04:12:52;8.20;;;7.28;;
64826;SDS011;51265;53.972;12.286;2023-06-22T04:15:19;10.10;;;8.80;;
64826;SDS011;51265;53.972;12.286;2023-06-22T04:17:45;11.60;;;8.73;;
64826;SDS011;51265;53.972;12.286;2023-06-22T04:20:11;9.90;;;8.90;;
64826;SDS011;51265;53.972;12.286;2023-06-22T04:22:38;23.05;;;17.90;;
64826;SDS011;51265;53.972;12.286;2023-06-22T04:25:05;12.50;;;10.50;;
64826;SDS011;51265;53.972;12.286;2023-06-22T04:27:33;11.15;;;9.40;;
64826;SDS011;51265;53.972;12.286;2023-06-22T04:30:06;10.18;;;7.70;;
64826;SDS011;51265;53.972;12.286;2023-06-22T04:32:34;12.40;;;8.07;;
64826;SDS011;51265;53.972;12.286;2023-06-22T04:35:04;10.70;;;8.32;;
64826;SDS011;51265;53.972;12.286;2023-06-22T04:37:32;9.43;;;7.45;;
64826;SDS011;51265;53.972;12.286;2023-06-22T04:39:59;8.93;;;7.30;;
64826;SDS011;51265;53.972;12.286;2023-06-22T04:42:26;12.70;;;7.40;;
64826;SDS011;51265;53.972;12.286;2023-06-22T04:44:52;9.77;;;7.45;;
64826;SDS011;51265;53.972;12.286;2023-06-22T04:47:19;11.23;;;8.40;;
64826;SDS011;51265;53.972;12.286;2023-06-22T04:49:46;41.30;;;35.38;;
64826;SDS011;51265;53.972;12.286;2023-06-22T04:52:12;25.77;;;20.55;;
64826;SDS011;51265;53.972;12.286;2023-06-22T04:54:40;17.23;;;12.45;;
64826;SDS011;51265;53.972;12.286;2023-06-22T04:57:14;11.68;;;8.20;;
64826;SDS011;51265;53.972;12.286;2023-06-22T04:59:40;13.10;;;9.20;;
64826;SDS011;51265;53.972;12.286;2023-06-22T05:02:07;14.65;;;10.73;;
64826;SDS011;51265;53.972;12.286;2023-06-22T05:04:34;17.67;;;11.55;;
64826;SDS011;51265;53.972;12.286;2023-06-22T05:07:01;19.17;;;12.52;;
64826;SDS011;51265;53.972;12.286;2023-06-22T05:09:29;20.60;;;13.02;;
64826;SDS011;51265;53.972;12.286;2023-06-22T05:11:55;20.98;;;12.52;;
64826;SDS011;51265;53.972;12.286;2023-06-22T05:14:22;16.02;;;12.48;;
64826;SDS011;51265;53.972;12.286;2023-06-22T05:16:49;17.02;;;12.10;;
64826;SDS011;51265;53.972;12.286;2023-06-22T05:19:15;15.73;;;11.90;;
64826;SDS011;51265;53.972;12.286;2023-06-22T05:21:42;18.63;;;12.35;;
64826;SDS011;51265;53.972;12.286;2023-06-22T05:24:08;19.10;;;11.35;;
64826;SDS011;51265;53.972;12.286;2023-06-22T05:26:34;14.27;;;9.27;;
64826;SDS011;51265;53.972;12.286;2023-06-22T05:29:01;20.60;;;10.52;;
64826;SDS011;51265;53.972;12.286;2023-06-22T05:31:29;13.68;;;9.73;;
64826;SDS011;51265;53.972;12.286;2023-06-22T05:33:55;14.15;;;9.85;;
64826;SDS011;51265;53.972;12.286;2023-06-22T05:36:22;15.35;;;10.07;;
64826;SDS011;51265;53.972;12.286;2023-06-22T05:38:51;12.63;;;9.25;;
64826;SDS011;51265;53.972;12.286;2023-06-22T05:41:18;19.42;;;9.43;;
64826;SDS011;51265;53.972;12.286;2023-06-22T05:43:45;13.13;;;9.80;;
64826;SDS011;51265;53.972;12.286;2023-06-22T05:46:11;13.43;;;9.77;;
64826;SDS011;51265;53.972;12.286;2023-06-22T05:48:37;12.68;;;9.65;;
64826;SDS011;51265;53.972;12.286;2023-06-22T05:51:03;13.88;;;9.90;;
64826;SDS011;51265;53.972;12.286;2023-06-22T05:53:30;15.85;;;10.75;;
64826;SDS011;51265;53.972;12.286;2023-06-22T05:55:56;13.02;;;9.38;;
64826;SDS011;51265;53.972;12.286;2023-06-22T05:58:22;12.88;;;9.55;;
64826;SDS011;51265;53.972;12.286;2023-06-22T06:00:48;10.63;;;8.38;;
64826;SDS011;51265;53.972;12.286;2023-06-22T06:03:15;10.48;;;8.68;;
64826;SDS011;51265;53.972;12.286;2023-06-22T06:05:43;10.52;;;7.72;;
64826;SDS011;51265;53.972;12.286;2023-06-22T06:08:10;9.93;;;6.78;;
64826;SDS011;51265;53.972;12.286;2023-06-22T06:10:37;7.72;;;5.55;;
64826;SDS011;51265;53.972;12.286;2023-06-22T06:13:03;7.00;;;4.40;;
64826;SDS011;51265;53.972;12.286;2023-06-22T06:15:30;9.90;;;4.85;;
64826;SDS011;51265;53.972;12.286;2023-06-22T06:17:57;7.90;;;4.10;;
64826;SDS011;51265;53.972;12.286;2023-06-22T06:20:24;9.30;;;5.70;;
64826;SDS011;51265;53.972;12.286;2023-06-22T06:22:52;11.90;;;5.72;;
64826;SDS011;51265;53.972;12.286;2023-06-22T06:25:18;10.82;;;6.72;;
64826;SDS011;51265;53.972;12.286;2023-06-22T06:27:46;9.40;;;5.88;;
64826;SDS011;51265;53.972;12.286;2023-06-22T06:30:12;6.90;;;4.95;;
64826;SDS011;51265;53.972;12.286;2023-06-22T06:32:40;9.43;;;5.70;;
64826;SDS011;51265;53.972;12.286;2023-06-22T06:35:08;9.13;;;5.53;;
64826;SDS011;51265;53.972;12.286;2023-06-22T06:37:35;10.70;;;4.53;;
64826;SDS011;51265;53.972;12.286;2023-06-22T06:40:03;8.55;;;4.97;;
64826;SDS011;51265;53.972;12.286;2023-06-22T06:42:37;9.75;;;4.80;;
64826;SDS011;51265;53.972;12.286;2023-06-22T06:45:06;5.93;;;3.78;;
64826;SDS011;51265;53.972;12.286;2023-06-22T06:47:35;6.88;;;3.55;;
64826;SDS011;51265;53.972;12.286;2023-06-22T06:50:02;6.30;;;4.05;;
64826;SDS011;51265;53.972;12.286;2023-06-22T06:52:30;6.60;;;4.22;;
64826;SDS011;51265;53.972;12.286;2023-06-22T06:54:56;5.32;;;3.92;;
64826;SDS011;51265;53.972;12.286;2023-06-22T06:57:22;7.97;;;4.30;;
64826;SDS011;51265;53.972;12.286;2023-06-22T06:59:49;4.90;;;3.83;;
64826;SDS011;51265;53.972;12.286;2023-06-22T07:02:15;5.40;;;3.58;;
64826;SDS011;51265;53.972;12.286;2023-06-22T07:04:41;4.93;;;3.10;;
64826;SDS011;51265;53.972;12.286;2023-06-22T07:07:08;4.70;;;2.95;;
64826;SDS011;51265;53.972;12.286;2023-06-22T07:09:34;5.80;;;3.47;;
64826;SDS011;51265;53.972;12.286;2023-06-22T07:12:00;5.45;;;3.20;;
64826;SDS011;51265;53.972;12.286;2023-06-22T07:14:26;4.22;;;2.53;;
64826;SDS011;51265;53.972;12.286;2023-06-22T07:16:52;4.85;;;2.30;;
64826;SDS011;51265;53.972;12.286;2023-06-22T07:19:24;3.00;;;2.47;;
64826;SDS011;51265;53.972;12.286;2023-06-22T07:24:18;4.20;;;2.63;;
64826;SDS011;51265;53.972;12.286;2023-06-22T07:26:48;4.05;;;2.60;;
64826;SDS011;51265;53.972;12.286;2023-06-22T07:29:21;3.00;;;1.95;;
64826;SDS011;51265;53.972;12.286;2023-06-22T07:31:48;6.18;;;3.42;;
64826;SDS011;51265;53.972;12.286;2023-06-22T07:34:17;4.47;;;2.40;;
64826;SDS011;51265;53.972;12.286;2023-06-22T07:36:44;5.28;;;2.70;;
64826;SDS011;51265;53.972;12.286;2023-06-22T07:39:10;5.68;;;2.15;;
64826;SDS011;51265;53.972;12.286;2023-06-22T07:41:38;5.55;;;1.92;;
64826;SDS011;51265;53.972;12.286;2023-06-22T07:44:08;2.38;;;1.60;;
64826;SDS011;51265;53.972;12.286;2023-06-22T07:46:35;3.05;;;2.00;;
64826;SDS011;51265;53.972;12.286;2023-06-22T07:49:01;4.95;;;2.40;;
64826;SDS011;51265;53.972;12.286;2023-06-22T07:51:34;4.20;;;2.05;;
64826;SDS011;51265;53.972;12.286;2023-06-22T07:54:01;2.70;;;1.75;;
64826;SDS011;51265;53.972;12.286;2023-06-22T07:56:27;4.00;;;2.10;;
64826;SDS011;51265;53.972;12.286;2023-06-22T07:58:53;4.18;;;1.90;;
64826;SDS011;51265;53.972;12.286;2023-06-22T08:01:19;4.18;;;1.90;;
64826;SDS011;51265;53.972;12.286;2023-06-22T08:03:48;4.40;;;1.55;;
64826;SDS011;51265;53.972;12.286;2023-06-22T08:06:14;2.92;;;2.03;;
64826;SDS011;51265;53.972;12.286;2023-06-22T08:08:41;3.47;;;1.58;;
64826;SDS011;51265;53.972;12.286;2023-06-22T08:11:08;4.70;;;1.80;;
64826;SDS011;51265;53.972;12.286;2023-06-22T08:13:35;3.20;;;1.95;;
64826;SDS011;51265;53.972;12.286;2023-06-22T08:16:01;4.85;;;2.20;;
64826;SDS011;51265;53.972;12.286;2023-06-22T08:18:27;3.80;;;2.00;;
64826;SDS011;51265;53.972;12.286;2023-06-22T08:20:54;3.35;;;1.92;;
64826;SDS011;51265;53.972;12.286;2023-06-22T08:23:20;5.95;;;2.58;;
64826;SDS011;51265;53.972;12.286;2023-06-22T08:25:46;4.88;;;2.10;;
64826;SDS011;51265;53.972;12.286;2023-06-22T08:28:14;3.05;;;2.03;;
64826;SDS011;51265;53.972;12.286;2023-06-22T08:30:40;3.90;;;2.15;;
64826;SDS011;51265;53.972;12.286;2023-06-22T08:33:06;2.78;;;1.98;;
64826;SDS011;51265;53.972;12.286;2023-06-22T08:35:32;3.83;;;1.88;;
64826;SDS011;51265;53.972;12.286;2023-06-22T08:37:58;4.07;;;1.92;;
64826;SDS011;51265;53.972;12.286;2023-06-22T08:40:25;3.55;;;1.83;;
64826;SDS011;51265;53.972;12.286;2023-06-22T08:42:52;3.58;;;2.00;;
64826;SDS011;51265;53.972;12.286;2023-06-22T08:45:18;4.20;;;1.90;;
64826;SDS011;51265;53.972;12.286;2023-06-22T08:47:44;23.10;;;4.70;;
64826;SDS011;51265;53.972;12.286;2023-06-22T08:50:12;4.65;;;2.40;;
64826;SDS011;51265;53.972;12.286;2023-06-22T08:52:38;2.67;;;1.60;;
64826;SDS011;51265;53.972;12.286;2023-06-22T08:55:07;3.60;;;1.80;;
64826;SDS011;51265;53.972;12.286;2023-06-22T08:57:34;4.13;;;1.60;;
64826;SDS011;51265;53.972;12.286;2023-06-22T09:00:04;3.90;;;1.83;;
64826;SDS011;51265;53.972;12.286;2023-06-22T09:02:43;4.15;;;1.98;;
64826;SDS011;51265;53.972;12.286;2023-06-22T09:05:10;4.70;;;1.48;;
64826;SDS011;51265;53.972;12.286;2023-06-22T09:07:36;3.70;;;1.80;;
64826;SDS011;51265;53.972;12.286;2023-06-22T09:10:03;4.25;;;2.08;;
64826;SDS011;51265;53.972;12.286;2023-06-22T09:12:30;4.07;;;1.75;;
64826;SDS011;51265;53.972;12.286;2023-06-22T09:14:59;3.60;;;1.85;;
64826;SDS011;51265;53.972;12.286;2023-06-22T09:17:29;2.58;;;1.50;;
64826;SDS011;51265;53.972;12.286;2023-06-22T09:19:55;4.20;;;1.80;;
64826;SDS011;51265;53.972;12.286;2023-06-22T09:22:21;2.05;;;1.40;;
64826;SDS011;51265;53.972;12.286;2023-06-22T09:24:47;2.38;;;1.83;;
64826;SDS011;51265;53.972;12.286;2023-06-22T09:27:13;2.28;;;1.40;;
64826;SDS011;51265;53.972;12.286;2023-06-22T09:29:39;3.58;;;1.58;;
64826;SDS011;51265;53.972;12.286;2023-06-22T09:32:06;2.97;;;1.60;;
64826;SDS011;51265;53.972;12.286;2023-06-22T09:34:32;3.42;;;1.80;;
64826;SDS011;51265;53.972;12.286;2023-06-22T09:36:58;4.85;;;1.85;;
64826;SDS011;51265;53.972;12.286;2023-06-22T09:39:26;2.78;;;1.63;;
64826;SDS011;51265;53.972;12.286;2023-06-22T09:41:52;3.70;;;1.92;;
64826;SDS011;51265;53.972;12.286;2023-06-22T09:44:18;2.47;;;2.00;;
64826;SDS011;51265;53.972;12.286;2023-06-22T09:46:45;3.10;;;2.03;;
64826;SDS011;51265;53.972;12.286;2023-06-22T09:49:11;4.30;;;1.90;;
64826;SDS011;51265;53.972;12.286;2023-06-22T09:51:37;2.63;;;1.95;;
64826;SDS011;51265;53.972;12.286;2023-06-22T09:54:03;4.28;;;1.92;;
64826;SDS011;51265;53.972;12.286;2023-06-22T09:56:29;2.83;;;2.00;;
64826;SDS011;51265;53.972;12.286;2023-06-22T09:58:56;7.65;;;3.50;;
64826;SDS011;51265;53.972;12.286;2023-06-22T10:01:22;3.78;;;2.13;;
64826;SDS011;51265;53.972;12.286;2023-06-22T10:03:49;2.90;;;2.10;;
64826;SDS011;51265;53.972;12.286;2023-06-22T10:06:15;8.13;;;2.40;;
64826;SDS011;51265;53.972;12.286;2023-06-22T10:08:43;2.50;;;1.77;;
64826;SDS011;51265;53.972;12.286;2023-06-22T10:11:09;2.80;;;2.15;;
64826;SDS011;51265;53.972;12.286;2023-06-22T10:13:35;4.35;;;1.75;;
64826;SDS011;51265;53.972;12.286;2023-06-22T10:16:01;3.42;;;1.95;;
64826;SDS011;51265;53.972;12.286;2023-06-22T10:18:27;2.38;;;1.58;;
64826;SDS011;51265;53.972;12.286;2023-06-22T10:20:53;3.22;;;2.00;;
64826;SDS011;51265;53.972;12.286;2023-06-22T10:23:20;4.28;;;1.83;;
64826;SDS011;51265;53.972;12.286;2023-06-22T10:25:46;2.95;;;1.98;;
64826;SDS011;51265;53.972;12.286;2023-06-22T10:28:13;5.15;;;2.00;;
64826;SDS011;51265;53.972;12.286;2023-06-22T10:30:40;4.05;;;2.00;;
64826;SDS011;51265;53.972;12.286;2023-06-22T10:33:09;3.53;;;2.20;;
64826;SDS011;51265;53.972;12.286;2023-06-22T10:35:36;2.90;;;1.83;;
64826;SDS011;51265;53.972;12.286;2023-06-22T10:38:03;6.18;;;2.40;;
64826;SDS011;51265;53.972;12.286;2023-06-22T10:40:30;8.63;;;2.95;;
64826;SDS011;51265;53.972;12.286;2023-06-22T10:42:56;3.22;;;2.70;;
64826;SDS011;51265;53.972;12.286;2023-06-22T10:45:23;5.55;;;2.20;;
64826;SDS011;51265;53.972;12.286;2023-06-22T10:47:49;4.95;;;2.20;;
64826;SDS011;51265;53.972;12.286;2023-06-22T10:50:15;3.63;;;1.95;;
64826;SDS011;51265;53.972;12.286;2023-06-22T10:52:41;6.28;;;2.42;;
64826;SDS011;51265;53.972;12.286;2023-06-22T10:55:08;3.88;;;2.33;;
64826;SDS011;51265;53.972;12.286;2023-06-22T10:57:35;3.00;;;2.15;;
64826;SDS011;51265;53.972;12.286;2023-06-22T11:00:02;4.05;;;2.38;;
64826;SDS011;51265;53.972;12.286;2023-06-22T11:02:31;3.55;;;2.20;;
64826;SDS011;51265;53.972;12.286;2023-06-22T11:04:57;3.42;;;2.20;;
64826;SDS011;51265;53.972;12.286;2023-06-22T11:07:26;8.02;;;2.88;;
64826;SDS011;51265;53.972;12.286;2023-06-22T11:09:54;5.45;;;2.70;;
64826;SDS011;51265;53.972;12.286;2023-06-22T11:12:21;3.60;;;2.90;;
64826;SDS011;51265;53.972;12.286;2023-06-22T11:14:47;3.80;;;2.42;;
64826;SDS011;51265;53.972;12.286;2023-06-22T11:17:13;4.18;;;2.28;;
64826;SDS011;51265;53.972;12.286;2023-06-22T11:19:39;6.03;;;2.67;;
64826;SDS011;51265;53.972;12.286;2023-06-22T11:22:05;7.72;;;3.40;;
64826;SDS011;51265;53.972;12.286;2023-06-22T11:24:32;4.25;;;2.83;;
64826;SDS011;51265;53.972;12.286;2023-06-22T11:26:58;5.35;;;2.92;;
64826;SDS011;51265;53.972;12.286;2023-06-22T11:29:24;5.65;;;3.30;;
64826;SDS011;51265;53.972;12.286;2023-06-22T11:31:50;4.97;;;3.00;;
64826;SDS011;51265;53.972;12.286;2023-06-22T11:34:16;4.97;;;2.75;;
64826;SDS011;51265;53.972;12.286;2023-06-22T11:36:43;6.93;;;2.60;;
64826;SDS011;51265;53.972;12.286;2023-06-22T11:39:09;5.32;;;2.78;;
64826;SDS011;51265;53.972;12.286;2023-06-22T11:41:36;4.28;;;2.53;;
64826;SDS011;51265;53.972;12.286;2023-06-22T11:44:03;4.78;;;2.53;;
64826;SDS011;51265;53.972;12.286;2023-06-22T11:46:30;3.85;;;2.88;;
64826;SDS011;51265;53.972;12.286;2023-06-22T11:48:57;4.85;;;2.75;;
64826;SDS011;51265;53.972;12.286;2023-06-22T11:51:23;3.15;;;2.28;;
64826;SDS011;51265;53.972;12.286;2023-06-22T11:53:50;4.90;;;2.50;;
64826;SDS011;51265;53.972;12.286;2023-06-22T11:56:16;4.57;;;2.60;;
64826;SDS011;51265;53.972;12.286;2023-06-22T11:58:42;5.72;;;3.10;;
64826;SDS011;51265;53.972;12.286;2023-06-22T12:01:08;3.47;;;2.30;;
64826;SDS011;51265;53.972;12.286;2023-06-22T12:03:34;4.35;;;3.42;;
64826;SDS011;51265;53.972;12.286;2023-06-22T12:06:00;5.13;;;2.88;;
64826;SDS011;51265;53.972;12.286;2023-06-22T12:08:27;4.50;;;2.90;;
64826;SDS011;51265;53.972;12.286;2023-06-22T12:10:53;6.95;;;3.05;;
64826;SDS011;51265;53.972;12.286;2023-06-22T12:13:20;4.15;;;3.10;;
64826;SDS011;51265;53.972;12.286;2023-06-22T12:15:47;6.03;;;3.05;;
64826;SDS011;51265;53.972;12.286;2023-06-22T12:18:13;4.80;;;2.58;;
64826;SDS011;51265;53.972;12.286;2023-06-22T12:20:42;4.68;;;2.35;;
64826;SDS011;51265;53.972;12.286;2023-06-22T12:23:08;5.82;;;2.40;;
64826;SDS011;51265;53.972;12.286;2023-06-22T12:25:35;2.95;;;2.28;;
64826;SDS011;51265;53.972;12.286;2023-06-22T12:28:01;3.95;;;2.40;;
64826;SDS011;51265;53.972;12.286;2023-06-22T12:30:27;5.47;;;2.42;;
64826;SDS011;51265;53.972;12.286;2023-06-22T12:32:53;5.40;;;2.60;;
64826;SDS011;51265;53.972;12.286;2023-06-22T12:35:19;5.40;;;2.88;;
64826;SDS011;51265;53.972;12.286;2023-06-22T12:37:45;3.97;;;2.80;;
64826;SDS011;51265;53.972;12.286;2023-06-22T12:40:12;4.78;;;2.83;;
64826;SDS011;51265;53.972;12.286;2023-06-22T12:42:38;4.07;;;2.28;;
64826;SDS011;51265;53.972;12.286;2023-06-22T12:45:04;5.53;;;3.17;;
64826;SDS011;51265;53.972;12.286;2023-06-22T12:47:31;5.72;;;3.22;;
64826;SDS011;51265;53.972;12.286;2023-06-22T12:49:57;7.30;;;3.00;;
64826;SDS011;51265;53.972;12.286;2023-06-22T12:52:23;9.27;;;3.28;;
64826;SDS011;51265;53.972;12.286;2023-06-22T12:54:50;3.78;;;3.03;;
64826;SDS011;51265;53.972;12.286;2023-06-22T12:57:16;5.57;;;3.15;;
64826;SDS011;51265;53.972;12.286;2023-06-22T12:59:52;6.50;;;2.95;;
64826;SDS011;51265;53.972;12.286;2023-06-22T13:02:18;5.40;;;3.35;;
64826;SDS011;51265;53.972;12.286;2023-06-22T13:04:44;4.60;;;3.10;;
64826;SDS011;51265;53.972;12.286;2023-06-22T13:07:10;3.08;;;2.20;;
64826;SDS011;51265;53.972;12.286;2023-06-22T13:09:37;4.28;;;2.55;;
64826;SDS011;51265;53.972;12.286;2023-06-22T13:12:03;3.65;;;2.22;;
64826;SDS011;51265;53.972;12.286;2023-06-22T13:14:29;4.88;;;2.22;;
64826;SDS011;51265;53.972;12.286;2023-06-22T13:16:55;4.35;;;2.33;;
64826;SDS011;51265;53.972;12.286;2023-06-22T13:19:21;4.18;;;1.65;;
64826;SDS011;51265;53.972;12.286;2023-06-22T13:21:48;5.05;;;2.70;;
64826;SDS011;51265;53.972;12.286;2023-06-22T13:24:14;2.55;;;2.30;;
64826;SDS011;51265;53.972;12.286;2023-06-22T13:26:40;8.80;;;2.30;;
64826;SDS011;51265;53.972;12.286;2023-06-22T13:29:06;5.63;;;2.35;;
64826;SDS011;51265;53.972;12.286;2023-06-22T13:31:32;3.42;;;2.13;;
64826;SDS011;51265;53.972;12.286;2023-06-22T13:33:59;6.25;;;2.13;;
64826;SDS011;51265;53.972;12.286;2023-06-22T13:36:25;5.07;;;2.17;;
64826;SDS011;51265;53.972;12.286;2023-06-22T13:38:51;3.47;;;2.25;;
64826;SDS011;51265;53.972;12.286;2023-06-22T13:41:17;4.25;;;2.05;;
64826;SDS011;51265;53.972;12.286;2023-06-22T13:43:43;5.18;;;2.95;;
64826;SDS011;51265;53.972;12.286;2023-06-22T13:46:09;3.08;;;2.30;;
64826;SDS011;51265;53.972;12.286;2023-06-22T13:48:36;4.00;;;1.85;;
64826;SDS011;51265;53.972;12.286;2023-06-22T13:51:02;4.88;;;2.10;;
64826;SDS011;51265;53.972;12.286;2023-06-22T13:53:28;4.45;;;1.90;;
64826;SDS011;51265;53.972;12.286;2023-06-22T13:55:55;3.17;;;2.00;;
64826;SDS011;51265;53.972;12.286;2023-06-22T13:58:22;7.72;;;2.15;;
64826;SDS011;51265;53.972;12.286;2023-06-22T14:00:48;2.92;;;2.00;;
64826;SDS011;51265;53.972;12.286;2023-06-22T14:03:14;5.55;;;2.30;;
64826;SDS011;51265;53.972;12.286;2023-06-22T14:05:42;2.97;;;2.08;;
64826;SDS011;51265;53.972;12.286;2023-06-22T14:08:09;3.65;;;2.00;;
64826;SDS011;51265;53.972;12.286;2023-06-22T14:10:35;7.05;;;2.22;;
64826;SDS011;51265;53.972;12.286;2023-06-22T14:13:01;3.05;;;2.03;;
64826;SDS011;51265;53.972;12.286;2023-06-22T14:15:27;2.97;;;2.20;;
64826;SDS011;51265;53.972;12.286;2023-06-22T14:17:53;8.35;;;5.38;;
64826;SDS011;51265;53.972;12.286;2023-06-22T14:20:19;5.68;;;3.08;;
64826;SDS011;51265;53.972;12.286;2023-06-22T14:22:46;3.92;;;2.33;;
64826;SDS011;51265;53.972;12.286;2023-06-22T14:25:12;2.95;;;2.22;;
64826;SDS011;51265;53.972;12.286;2023-06-22T14:27:38;4.07;;;2.35;;
64826;SDS011;51265;53.972;12.286;2023-06-22T14:30:04;2.63;;;2.10;;
64826;SDS011;51265;53.972;12.286;2023-06-22T14:32:31;7.35;;;2.20;;
64826;SDS011;51265;53.972;12.286;2023-06-22T14:34:57;4.72;;;2.03;;
64826;SDS011;51265;53.972;12.286;2023-06-22T14:37:23;2.50;;;1.98;;
64826;SDS011;51265;53.972;12.286;2023-06-22T14:39:49;2.70;;;2.10;;